createdAt,value
2023-03-10T00:02:09.803Z,17.80
2023-03-10T00:04:39.428Z,17.60
2023-03-10T00:07:08.819Z,17.17
2023-03-10T00:09:40.808Z,17.30
2023-03-10T00:12:11.241Z,18.60
2023-03-10T00:14:41.078Z,18.37
2023-03-10T00:17:10.510Z,18.23
2023-03-10T00:19:39.899Z,19.10
2023-03-10T00:22:09.414Z,17.40
2023-03-10T00:24:41.403Z,18.03
2023-03-10T00:27:10.784Z,17.87
2023-03-10T00:29:40.173Z,17.90
2023-03-10T00:32:10.377Z,17.23
2023-03-10T00:34:39.847Z,17.50
2023-03-10T00:37:09.398Z,17.87
2023-03-10T00:39:42.104Z,17.53
2023-03-10T00:42:11.478Z,17.57
2023-03-10T00:44:40.849Z,17.37
2023-03-10T00:47:10.315Z,17.50
2023-03-10T00:49:39.737Z,17.63
2023-03-10T00:52:09.409Z,18.17
2023-03-10T00:54:44.224Z,17.20
2023-03-10T00:57:13.616Z,17.97
2023-03-10T00:59:50.350Z,17.47
2023-03-10T01:02:20.302Z,19.10
2023-03-10T01:04:50.155Z,18.23
2023-03-10T01:07:19.605Z,18.07
2023-03-10T01:09:51.749Z,21.23
2023-03-10T01:12:21.921Z,18.83
2023-03-10T01:14:51.379Z,18.50
2023-03-10T01:17:20.760Z,21.30
2023-03-10T01:19:50.146Z,18.90
2023-03-10T01:22:19.625Z,18.97
2023-03-10T01:24:51.650Z,22.67
2023-03-10T01:27:21.036Z,26.70
2023-03-10T01:29:50.476Z,25.37
2023-03-10T01:32:19.957Z,20.50
2023-03-10T01:34:49.389Z,20.37
2023-03-10T01:37:18.947Z,20.00
2023-03-10T01:39:50.911Z,16.50
2023-03-10T01:42:20.338Z,17.70
2023-03-10T01:45:08.889Z,17.03
2023-03-10T01:47:38.365Z,19.37
2023-03-10T01:50:09.974Z,17.27
2023-03-10T01:52:39.655Z,17.37
2023-03-10T01:55:14.953Z,18.07
2023-03-10T01:57:46.723Z,18.13
2023-03-10T02:00:17.062Z,23.70
2023-03-10T02:02:52.183Z,22.47
2023-03-10T02:05:22.079Z,19.13
2023-03-10T02:07:51.959Z,17.80
2023-03-10T02:10:24.113Z,17.70
2023-03-10T02:12:53.511Z,17.50
2023-03-10T02:15:23.000Z,17.87
2023-03-10T02:17:53.656Z,18.13
2023-03-10T02:20:29.488Z,17.33
2023-03-10T02:22:59.120Z,18.15
2023-03-10T02:25:36.367Z,17.03
2023-03-10T02:28:08.656Z,16.17
2023-03-10T02:30:41.372Z,16.93
2023-03-10T02:33:13.247Z,18.03
2023-03-10T02:35:42.681Z,17.00
2023-03-10T02:38:12.105Z,16.17
2023-03-10T02:40:47.232Z,17.63
2023-03-10T02:43:20.895Z,18.05
2023-03-10T02:45:51.262Z,18.07
2023-03-10T02:48:24.937Z,17.15
2023-03-10T02:50:56.419Z,17.93
2023-03-10T02:53:27.609Z,17.13
2023-03-10T02:55:57.717Z,16.88
2023-03-10T02:58:33.337Z,16.77
2023-03-10T03:01:05.011Z,15.13
2023-03-10T03:03:34.764Z,17.80
2023-03-10T03:06:04.196Z,15.48
2023-03-10T03:08:33.640Z,15.53
2023-03-10T03:11:04.660Z,16.83
2023-03-10T03:13:36.719Z,15.80
2023-03-10T03:16:08.702Z,17.70
2023-03-10T03:18:38.874Z,17.40
2023-03-10T03:21:10.398Z,16.40
2023-03-10T03:23:40.731Z,18.85
2023-03-10T03:26:17.512Z,15.27
2023-03-10T03:28:49.770Z,17.80
2023-03-10T03:31:20.506Z,16.77
2023-03-10T03:33:50.216Z,16.70
2023-03-10T03:36:20.316Z,17.08
2023-03-10T03:38:49.965Z,16.95
2023-03-10T03:41:19.593Z,17.70
2023-03-10T03:43:51.619Z,16.70
2023-03-10T03:46:21.192Z,16.08
2023-03-10T03:48:50.617Z,17.45
2023-03-10T03:51:20.021Z,21.30
2023-03-10T03:53:49.389Z,16.67
2023-03-10T03:56:18.842Z,16.40
2023-03-10T03:58:50.925Z,17.38
2023-03-10T04:01:20.340Z,18.07
2023-03-10T04:03:50.523Z,17.83
2023-03-10T04:06:19.983Z,16.45
2023-03-10T04:08:51.886Z,17.60
2023-03-10T04:11:21.492Z,16.90
2023-03-10T04:13:53.479Z,17.53
2023-03-10T04:16:22.907Z,16.97
2023-03-10T04:18:52.424Z,17.35
2023-03-10T04:21:21.843Z,17.80
2023-03-10T04:23:51.273Z,18.23
2023-03-10T04:26:20.780Z,18.53
2023-03-10T04:28:52.786Z,16.75
2023-03-10T04:31:22.566Z,19.17
2023-03-10T04:33:52.080Z,17.90
2023-03-10T04:36:21.841Z,17.92
2023-03-10T04:38:51.381Z,17.73
2023-03-10T04:41:20.819Z,18.95
2023-03-10T04:43:52.876Z,18.50
2023-03-10T04:46:22.418Z,17.52
2023-03-10T04:48:52.015Z,17.35
2023-03-10T04:51:21.542Z,17.73
2023-03-10T04:53:50.983Z,17.23
2023-03-10T04:56:20.431Z,17.95
2023-03-10T04:58:49.846Z,18.40
2023-03-10T05:01:21.971Z,18.55
2023-03-10T05:03:51.401Z,16.23
2023-03-10T05:06:23.395Z,17.90
2023-03-10T05:08:52.802Z,17.95
2023-03-10T05:11:22.259Z,16.92
2023-03-10T05:13:51.626Z,18.60
2023-03-10T05:16:24.751Z,18.77
2023-03-10T05:18:54.179Z,17.48
2023-03-10T05:21:24.253Z,17.40
2023-03-10T05:23:53.646Z,17.33
2023-03-10T05:26:23.050Z,19.85
2023-03-10T05:28:52.588Z,20.98
2023-03-10T05:31:27.168Z,21.38
2023-03-10T05:33:57.125Z,25.50
2023-03-10T05:36:26.766Z,23.13
2023-03-10T05:38:56.211Z,36.87
2023-03-10T05:41:25.659Z,23.03
2023-03-10T05:43:55.102Z,27.03
2023-03-10T05:46:27.597Z,26.37
2023-03-10T05:48:57.143Z,20.70
2023-03-10T05:51:26.771Z,18.70
2023-03-10T05:53:56.191Z,18.50
2023-03-10T05:56:25.680Z,18.17
2023-03-10T05:58:55.058Z,18.40
2023-03-10T06:01:27.122Z,20.00
2023-03-10T06:03:56.623Z,19.48
2023-03-10T06:06:26.114Z,17.50
2023-03-10T06:08:56.649Z,19.33
2023-03-10T06:11:26.179Z,19.25
2023-03-10T06:13:55.820Z,17.42
2023-03-10T06:16:28.247Z,17.92
2023-03-10T06:18:58.598Z,18.52
2023-03-10T06:21:29.589Z,16.98
2023-03-10T06:23:59.265Z,17.30
2023-03-10T06:26:28.727Z,18.20
2023-03-10T06:28:58.167Z,17.23
2023-03-10T06:31:30.434Z,18.33
2023-03-10T06:34:01.492Z,17.90
2023-03-10T06:36:32.707Z,17.48
2023-03-10T06:39:02.276Z,17.65
2023-03-10T06:41:31.817Z,18.02
2023-03-10T06:44:01.295Z,18.00
2023-03-10T06:46:33.367Z,16.98
2023-03-10T06:49:02.800Z,16.13
2023-03-10T06:51:32.212Z,15.50
2023-03-10T06:54:01.632Z,16.25
2023-03-10T06:56:31.121Z,17.60
2023-03-10T06:59:00.625Z,17.73
2023-03-10T07:01:34.477Z,16.58
2023-03-10T07:04:04.480Z,15.63
2023-03-10T07:06:33.913Z,16.20
2023-03-10T07:09:03.532Z,16.10
2023-03-10T07:11:33.090Z,16.65
2023-03-10T07:14:02.850Z,14.40
2023-03-10T07:16:34.908Z,17.98
2023-03-10T07:19:04.383Z,15.65
2023-03-10T07:21:34.354Z,16.00
2023-03-10T07:24:03.822Z,14.93
2023-03-10T07:26:33.559Z,15.40
2023-03-10T07:29:03.018Z,17.17
2023-03-10T07:31:36.648Z,16.30
2023-03-10T07:34:06.055Z,20.92
2023-03-10T07:36:35.552Z,17.52
2023-03-10T07:39:04.986Z,17.13
2023-03-10T07:41:46.305Z,16.30
2023-03-10T07:44:15.732Z,17.67
2023-03-10T07:46:47.972Z,17.90
2023-03-10T07:49:17.394Z,17.05
2023-03-10T07:51:46.836Z,16.63
2023-03-10T07:54:16.396Z,16.37
2023-03-10T07:56:45.871Z,15.77
2023-03-10T07:59:15.300Z,15.40
2023-03-10T08:01:47.298Z,16.10
2023-03-10T08:04:17.404Z,17.83
2023-03-10T08:06:47.782Z,14.90
2023-03-10T08:09:17.331Z,15.27
2023-03-10T08:11:46.745Z,17.23
2023-03-10T08:14:20.940Z,15.27
2023-03-10T08:16:53.297Z,15.40
2023-03-10T08:19:22.887Z,16.10
2023-03-10T08:21:53.356Z,19.10
2023-03-10T08:24:22.769Z,15.43
2023-03-10T08:26:52.679Z,15.50
2023-03-10T08:29:22.677Z,16.40
2023-03-10T08:31:54.737Z,15.87
2023-03-10T08:34:24.233Z,17.97
2023-03-10T08:36:53.616Z,15.53
2023-03-10T08:39:23.050Z,14.37
2023-03-10T08:41:52.431Z,15.80
2023-03-10T08:44:22.196Z,15.85
2023-03-10T08:46:54.551Z,15.97
2023-03-10T08:49:24.701Z,16.77
2023-03-10T08:51:54.219Z,18.27
2023-03-10T08:54:25.231Z,15.27
2023-03-10T08:56:54.893Z,16.87
2023-03-10T08:59:24.369Z,14.70
2023-03-10T09:01:56.594Z,15.20
2023-03-10T09:04:26.002Z,17.83
2023-03-10T09:06:55.410Z,14.80
2023-03-10T09:09:24.907Z,14.03
2023-03-10T09:11:54.368Z,24.10
2023-03-10T09:14:23.761Z,12.93
2023-03-10T09:16:55.843Z,14.23
2023-03-10T09:19:25.373Z,14.10
2023-03-10T09:21:55.416Z,14.67
2023-03-10T09:24:24.959Z,13.73
2023-03-10T09:26:55.895Z,15.27
2023-03-10T09:29:42.022Z,15.97
2023-03-10T09:32:14.605Z,14.63
2023-03-10T09:34:45.454Z,14.30
2023-03-10T09:37:14.848Z,13.77
2023-03-10T09:39:44.258Z,15.07
2023-03-10T09:42:38.289Z,16.20
2023-03-10T09:45:21.163Z,15.83
2023-03-10T09:48:12.391Z,14.70
2023-03-10T09:50:43.763Z,16.77
2023-03-10T09:53:25.043Z,14.90
2023-03-10T09:55:54.526Z,14.37
2023-03-10T09:58:32.159Z,15.50
2023-03-10T10:01:02.192Z,15.13
2023-03-10T10:03:51.830Z,14.70
2023-03-10T10:06:27.634Z,15.77
2023-03-10T10:09:05.981Z,14.37
2023-03-10T10:11:36.556Z,15.70
2023-03-10T10:14:28.372Z,16.00
2023-03-10T10:17:03.615Z,15.20
2023-03-10T10:19:37.206Z,16.10
2023-03-10T10:22:11.916Z,15.47
2023-03-10T10:24:41.400Z,14.90
2023-03-10T10:27:11.052Z,16.50
2023-03-10T10:29:43.571Z,16.00
2023-03-10T10:32:15.222Z,16.30
2023-03-10T10:34:49.274Z,14.50
2023-03-10T10:37:34.240Z,16.83
2023-03-10T10:40:09.303Z,17.65
2023-03-10T10:42:38.808Z,15.87
2023-03-10T10:45:26.891Z,15.80
2023-03-10T10:47:56.280Z,17.40
2023-03-10T10:50:29.684Z,16.73
2023-03-10T10:53:17.721Z,16.93
2023-03-10T10:55:47.870Z,19.37
2023-03-10T10:58:29.858Z,18.00
2023-03-10T11:01:01.448Z,17.53
2023-03-10T11:03:33.580Z,15.37
2023-03-10T11:06:15.765Z,18.10
2023-03-10T11:08:51.242Z,18.93
2023-03-10T11:11:29.490Z,18.63
2023-03-10T11:14:10.238Z,17.40
2023-03-10T11:16:47.010Z,23.50
2023-03-10T11:19:23.689Z,18.67
2023-03-10T11:21:59.644Z,17.37
2023-03-10T11:24:34.053Z,19.57
2023-03-10T11:27:11.612Z,20.10
2023-03-10T11:29:53.813Z,18.77
2023-03-10T11:32:28.348Z,17.20
2023-03-10T11:34:58.352Z,17.10
2023-03-10T11:37:34.248Z,18.63
2023-03-10T11:40:18.211Z,17.63
2023-03-10T11:42:51.802Z,15.20
2023-03-10T11:45:29.470Z,15.40
2023-03-10T11:48:05.809Z,18.47
2023-03-10T11:50:40.942Z,15.93
2023-03-10T11:53:18.117Z,14.90
2023-03-10T11:55:48.288Z,16.07
2023-03-10T11:58:25.659Z,17.03
2023-03-10T12:00:55.892Z,17.50
2023-03-10T12:03:36.034Z,16.50
2023-03-10T12:06:06.311Z,17.10
2023-03-10T12:08:39.194Z,14.83
2023-03-10T12:11:15.124Z,15.97
2023-03-10T12:13:47.707Z,17.43
2023-03-10T12:16:21.232Z,15.43
2023-03-10T12:18:50.861Z,15.93
2023-03-10T12:21:22.952Z,16.33
2023-03-10T12:23:56.254Z,15.23
2023-03-10T12:26:56.059Z,15.17
2023-03-10T12:29:31.845Z,15.57
2023-03-10T12:32:01.507Z,14.13
2023-03-10T12:34:32.693Z,14.30
2023-03-10T12:37:10.491Z,14.27
2023-03-10T12:39:44.279Z,14.93
2023-03-10T12:42:32.033Z,16.23
2023-03-10T12:45:20.279Z,14.70
2023-03-10T12:47:56.568Z,15.20
2023-03-10T12:50:47.234Z,14.47
2023-03-10T12:53:28.603Z,14.70
2023-03-10T12:56:28.836Z,15.20
2023-03-10T12:59:01.786Z,16.13
2023-03-10T13:01:36.685Z,16.00
2023-03-10T13:04:09.366Z,15.43
2023-03-10T13:06:41.747Z,14.67
2023-03-10T13:09:14.522Z,13.93
2023-03-10T13:11:47.938Z,14.70
2023-03-10T13:14:19.931Z,14.27
2023-03-10T13:16:56.412Z,15.90
2023-03-10T13:19:28.247Z,16.50
2023-03-10T13:21:58.226Z,16.30
2023-03-10T13:24:31.135Z,16.80
2023-03-10T13:27:14.909Z,20.67
2023-03-10T13:29:56.614Z,18.00
2023-03-10T13:32:26.210Z,17.10
2023-03-10T13:34:56.557Z,15.40
2023-03-10T13:37:26.633Z,14.03
2023-03-10T13:40:10.060Z,14.13
2023-03-10T13:42:44.538Z,15.67
2023-03-10T13:45:24.445Z,17.93
2023-03-10T13:47:54.194Z,15.77
2023-03-10T13:50:23.622Z,14.83
2023-03-10T13:52:57.790Z,15.30
2023-03-10T13:55:28.368Z,15.47
2023-03-10T13:58:00.609Z,15.50
2023-03-10T14:00:30.640Z,16.60
2023-03-10T14:03:00.212Z,17.20
2023-03-10T14:05:45.699Z,16.00
2023-03-10T14:08:23.612Z,15.33
2023-03-10T14:10:53.074Z,15.37
2023-03-10T14:13:48.974Z,14.40
2023-03-10T14:16:18.528Z,19.00
2023-03-10T14:18:48.084Z,14.77
2023-03-10T14:21:36.667Z,17.33
2023-03-10T14:24:08.621Z,15.10
2023-03-10T14:26:38.072Z,16.03
2023-03-10T14:29:16.384Z,15.47
2023-03-10T14:31:46.307Z,20.40
2023-03-10T14:34:16.019Z,14.00
2023-03-10T14:36:45.416Z,16.90
2023-03-10T14:39:14.891Z,13.40
2023-03-10T14:41:44.332Z,16.00
2023-03-10T14:44:16.927Z,15.43
2023-03-10T14:46:47.956Z,15.93
2023-03-10T14:49:19.185Z,14.20
2023-03-10T14:51:48.674Z,14.63
2023-03-10T14:54:20.094Z,14.67
2023-03-10T14:56:52.486Z,14.10
2023-03-10T14:59:24.543Z,15.53
2023-03-10T15:01:53.993Z,14.20
2023-03-10T15:04:23.556Z,15.40
2023-03-10T15:06:53.196Z,14.37
2023-03-10T15:09:22.820Z,15.27
2023-03-10T15:11:52.334Z,14.73
2023-03-10T15:14:24.416Z,14.37
2023-03-10T15:16:55.529Z,13.90
2023-03-10T15:19:26.870Z,16.70
2023-03-10T15:21:56.936Z,14.97
2023-03-10T15:24:26.449Z,12.80
2023-03-10T15:26:55.889Z,14.63
2023-03-10T15:29:27.931Z,14.20
2023-03-10T15:31:58.056Z,12.70
2023-03-10T15:34:27.476Z,13.83
2023-03-10T15:36:56.869Z,13.77
2023-03-10T15:39:31.827Z,12.90
2023-03-10T15:42:02.131Z,14.13
2023-03-10T15:44:34.204Z,14.33
2023-03-10T15:47:03.621Z,13.90
2023-03-10T15:49:33.039Z,14.27
2023-03-10T15:52:02.462Z,13.23
2023-03-10T15:54:31.871Z,13.50
2023-03-10T15:57:01.247Z,14.60
2023-03-10T15:59:30.700Z,12.97
2023-03-10T16:02:02.835Z,14.03
2023-03-10T16:04:33.439Z,12.73
2023-03-10T16:07:04.777Z,13.80
2023-03-10T16:09:35.285Z,14.03
2023-03-10T16:12:04.776Z,13.50
2023-03-10T16:14:34.210Z,14.17
2023-03-10T16:17:06.294Z,13.60
2023-03-10T16:19:36.099Z,12.40
2023-03-10T16:22:05.541Z,14.07
2023-03-10T16:24:35.004Z,13.43
2023-03-10T16:27:04.446Z,13.90
2023-03-10T16:29:34.233Z,14.00
2023-03-10T16:32:06.275Z,21.33
2023-03-10T16:34:35.817Z,14.23
2023-03-10T16:37:08.112Z,13.30
2023-03-10T16:39:38.052Z,13.50
2023-03-10T16:42:07.978Z,15.20
2023-03-10T16:44:37.478Z,14.87
2023-03-10T16:47:09.564Z,13.43
2023-03-10T16:49:39.003Z,11.80
2023-03-10T16:52:10.770Z,12.80
2023-03-10T16:54:40.505Z,13.17
2023-03-10T16:57:11.889Z,13.80
2023-03-10T16:59:41.788Z,13.63
2023-03-10T17:02:17.038Z,14.40
2023-03-10T17:04:46.632Z,13.27
2023-03-10T17:07:16.178Z,12.83
2023-03-10T17:09:45.845Z,13.03
2023-03-10T17:12:15.247Z,13.20
2023-03-10T17:14:44.737Z,13.00
2023-03-10T17:17:16.801Z,14.17
2023-03-10T17:19:46.316Z,15.33
2023-03-10T17:22:15.754Z,14.07
2023-03-10T17:24:45.203Z,11.97
2023-03-10T17:27:14.647Z,13.30
2023-03-10T17:29:44.020Z,13.70
2023-03-10T17:32:16.928Z,14.07
2023-03-10T17:34:52.000Z,14.57
2023-03-10T17:37:21.490Z,14.50
2023-03-10T17:39:51.015Z,14.50
2023-03-10T17:42:20.534Z,13.98
2023-03-10T17:44:49.962Z,13.83
2023-03-10T17:47:21.933Z,14.02
2023-03-10T17:49:51.575Z,14.00
2023-03-10T17:52:20.948Z,14.32
2023-03-10T17:54:50.828Z,14.48
2023-03-10T17:57:20.391Z,14.40
2023-03-10T17:59:51.117Z,13.75
2023-03-10T18:02:23.151Z,14.18
2023-03-10T18:04:52.654Z,14.00
2023-03-10T18:07:22.038Z,14.30
2023-03-10T18:09:51.413Z,13.80
2023-03-10T18:12:20.812Z,14.20
2023-03-10T18:14:50.297Z,14.95
2023-03-10T18:17:19.703Z,14.30
2023-03-10T18:19:53.542Z,16.05
2023-03-10T18:22:22.933Z,15.20
2023-03-10T18:24:52.381Z,16.48
2023-03-10T18:27:22.572Z,14.33
2023-03-10T18:29:52.061Z,17.02
2023-03-10T18:32:21.697Z,16.58
2023-03-10T18:34:53.976Z,14.77
2023-03-10T18:37:23.403Z,20.47
2023-03-10T18:39:52.842Z,14.98
2023-03-10T18:42:23.333Z,14.52
2023-03-10T18:44:52.798Z,14.90
2023-03-10T18:47:22.427Z,15.40
2023-03-10T18:49:58.526Z,16.08
2023-03-10T18:52:28.079Z,14.52
2023-03-10T18:55:00.819Z,15.80
2023-03-10T18:57:30.808Z,15.43
2023-03-10T19:00:01.040Z,15.75
2023-03-10T19:02:30.837Z,16.25
2023-03-10T19:05:05.015Z,16.05
2023-03-10T19:07:36.761Z,15.90
2023-03-10T19:10:06.285Z,15.05
2023-03-10T19:12:35.668Z,16.13
2023-03-10T19:15:08.965Z,16.63
2023-03-10T19:17:39.659Z,16.00
2023-03-10T19:20:14.501Z,18.92
2023-03-10T19:22:45.343Z,14.50
2023-03-10T19:25:14.890Z,17.40
2023-03-10T19:27:44.435Z,14.80
2023-03-10T19:30:19.968Z,18.95
2023-03-10T19:32:49.745Z,15.27
2023-03-10T19:35:21.927Z,16.33
2023-03-10T19:37:51.290Z,16.90
2023-03-10T19:40:23.074Z,16.67
2023-03-10T19:42:52.570Z,14.45
2023-03-10T19:45:22.708Z,16.02
2023-03-10T19:47:52.464Z,15.10
2023-03-10T19:50:25.318Z,18.77
2023-03-10T19:52:57.541Z,13.52
2023-03-10T19:55:27.457Z,15.90
2023-03-10T19:57:58.705Z,14.98
2023-03-10T20:00:35.573Z,13.65
2023-03-10T20:03:05.202Z,13.40
2023-03-10T20:05:37.252Z,13.90
2023-03-10T20:08:07.169Z,13.32
2023-03-10T20:10:36.623Z,12.95
2023-03-10T20:13:06.102Z,11.10
2023-03-10T20:15:35.546Z,13.15
2023-03-10T20:18:04.949Z,12.45
2023-03-10T20:20:36.984Z,14.13
2023-03-10T20:23:06.861Z,11.85
2023-03-10T20:25:36.433Z,11.23
2023-03-10T20:28:05.850Z,10.63
2023-03-10T20:30:35.992Z,10.52
2023-03-10T20:33:05.779Z,10.85
2023-03-10T20:35:38.486Z,13.82
2023-03-10T20:38:08.064Z,12.65
2023-03-10T20:40:38.592Z,12.55
2023-03-10T20:43:08.790Z,11.75
2023-03-10T20:45:38.795Z,12.77
2023-03-10T20:48:09.063Z,11.15
2023-03-10T20:50:41.087Z,12.85
2023-03-10T20:53:10.468Z,11.38
2023-03-10T20:55:39.922Z,13.02
2023-03-10T20:58:09.336Z,14.25
2023-03-10T21:00:41.632Z,16.27
2023-03-10T21:03:11.036Z,12.43
2023-03-10T21:05:43.083Z,13.45
2023-03-10T21:08:12.569Z,10.13
2023-03-10T21:10:44.575Z,8.48
2023-03-10T21:13:14.027Z,10.77
2023-03-10T21:15:43.550Z,9.52
2023-03-10T21:18:12.976Z,11.23
2023-03-10T21:20:44.966Z,12.88
2023-03-10T21:23:14.343Z,11.13
2023-03-10T21:25:43.918Z,7.97
2023-03-10T21:28:13.362Z,10.27
2023-03-10T21:30:43.107Z,8.57
2023-03-10T21:33:12.636Z,11.57
2023-03-10T21:35:43.101Z,7.68
2023-03-10T21:38:15.670Z,9.88
2023-03-10T21:40:45.095Z,9.15
2023-03-10T21:43:14.478Z,11.38
2023-03-10T21:45:43.874Z,8.63
2023-03-10T21:48:14.151Z,9.45
2023-03-10T21:50:43.716Z,10.48
2023-03-10T21:53:15.794Z,9.50
2023-03-10T21:55:45.293Z,10.60
2023-03-10T21:58:14.760Z,10.27
2023-03-10T22:00:44.221Z,9.57
2023-03-10T22:03:13.580Z,8.32
2023-03-10T22:05:42.969Z,10.70
2023-03-10T22:08:14.999Z,24.88
2023-03-10T22:10:45.451Z,11.98
2023-03-10T22:13:14.925Z,11.35
2023-03-10T22:15:44.401Z,10.95
2023-03-10T22:18:13.824Z,12.05
2023-03-10T22:20:43.264Z,9.82
2023-03-10T22:23:15.654Z,11.65
2023-03-10T22:25:45.071Z,13.52
2023-03-10T22:28:14.569Z,17.23
2023-03-10T22:30:44.483Z,13.07
2023-03-10T22:33:13.907Z,14.18
2023-03-10T22:35:45.211Z,11.38
2023-03-10T22:38:17.300Z,12.00
2023-03-10T22:40:46.781Z,10.93
2023-03-10T22:43:16.649Z,11.38
2023-03-10T22:45:46.768Z,12.00
2023-03-10T22:48:16.160Z,15.90
2023-03-10T22:50:47.252Z,11.65
2023-03-10T22:53:21.597Z,10.88
2023-03-10T22:55:52.280Z,11.65
2023-03-10T22:58:21.753Z,10.45
2023-03-10T23:00:51.201Z,12.63
2023-03-10T23:03:20.879Z,11.15
2023-03-10T23:05:50.314Z,13.43
2023-03-10T23:08:22.292Z,13.73
2023-03-10T23:10:51.989Z,10.73
2023-03-10T23:13:22.791Z,15.20
2023-03-10T23:15:52.290Z,23.65
2023-03-10T23:18:22.384Z,10.98
2023-03-10T23:20:53.064Z,10.70
2023-03-10T23:23:25.083Z,15.55
2023-03-10T23:25:54.800Z,12.48
2023-03-10T23:28:24.345Z,12.13
2023-03-10T23:30:54.344Z,16.05
2023-03-10T23:33:25.605Z,11.43
2023-03-10T23:35:55.177Z,13.15
2023-03-10T23:38:28.494Z,24.48
2023-03-10T23:40:58.064Z,11.95
2023-03-10T23:43:27.537Z,12.27
2023-03-10T23:45:57.067Z,12.63
2023-03-10T23:48:26.653Z,13.35
2023-03-10T23:50:56.069Z,26.38
2023-03-10T23:53:28.736Z,14.77
2023-03-10T23:56:00.217Z,24.23
2023-03-10T23:58:30.554Z,22.95
